sensor_id;sensor_type;location;lat;lon;timestamp;temperature;humidity
15949;DHT22;14848;50.954;6.642;2023-03-01T03:04:15;-0.90;99.90
15949;DHT22;14848;50.954;6.642;2023-03-01T03:06:45;-0.90;99.90
15949;DHT22;14848;50.954;6.642;2023-03-01T03:09:12;-0.50;99.90
15949;DHT22;14848;50.954;6.642;2023-03-01T03:11:38;-0.80;99.90
15949;DHT22;14848;50.954;6.642;2023-03-01T03:14:05;-0.50;99.90
15949;DHT22;14848;50.954;6.642;2023-03-01T03:16:31;-1.30;99.90
15949;DHT22;14848;50.954;6.642;2023-03-01T03:18:56;-1.30;99.90
15949;DHT22;14848;50.954;6.642;2023-03-01T03:21:33;-0.50;99.90
15949;DHT22;14848;50.954;6.642;2023-03-01T03:58:17;-1.60;99.90
15949;DHT22;14848;50.954;6.642;2023-03-01T20:07:40;2.90;99.90
15949;DHT22;14848;50.954;6.642;2023-03-01T20:12:35;2.70;99.90
15949;DHT22;14848;50.954;6.642;2023-03-01T20:39:21;2.30;99.90
15949;DHT22;14848;50.954;6.642;2023-03-01T20:49:05;2.20;99.90
15949;DHT22;14848;50.954;6.642;2023-03-01T21:01:19;2.10;99.90
15949;DHT22;14848;50.954;6.642;2023-03-01T21:03:46;2.10;99.90
15949;DHT22;14848;50.954;6.642;2023-03-01T21:11:04;2.00;99.90
15949;DHT22;14848;50.954;6.642;2023-03-01T21:13:31;1.90;99.90
15949;DHT22;14848;50.954;6.642;2023-03-01T21:16:06;1.80;99.90
15949;DHT22;14848;50.954;6.642;2023-03-01T21:18:35;2.00;99.90
15949;DHT22;14848;50.954;6.642;2023-03-01T21:21:06;1.80;99.90
15949;DHT22;14848;50.954;6.642;2023-03-01T21:23:34;1.70;99.90
15949;DHT22;14848;50.954;6.642;2023-03-01T21:26:17;1.70;99.90
15949;DHT22;14848;50.954;6.642;2023-03-01T21:28:44;1.70;99.90
15949;DHT22;14848;50.954;6.642;2023-03-01T21:31:18;1.80;99.90
15949;DHT22;14848;50.954;6.642;2023-03-01T21:33:52;1.70;99.90
15949;DHT22;14848;50.954;6.642;2023-03-01T21:36:19;1.70;99.90
15949;DHT22;14848;50.954;6.642;2023-03-01T21:38:46;1.70;99.90
15949;DHT22;14848;50.954;6.642;2023-03-01T21:43:45;1.60;99.90
15949;DHT22;14848;50.954;6.642;2023-03-01T21:46:14;1.30;99.90
15949;DHT22;14848;50.954;6.642;2023-03-01T21:48:41;1.40;99.90
15949;DHT22;14848;50.954;6.642;2023-03-01T21:53:34;1.20;99.90
15949;DHT22;14848;50.954;6.642;2023-03-01T21:56:01;1.40;99.90
15949;DHT22;14848;50.954;6.642;2023-03-01T21:58:27;1.80;99.90
15949;DHT22;14848;50.954;6.642;2023-03-01T22:00:56;1.50;99.90
15949;DHT22;14848;50.954;6.642;2023-03-01T22:03:22;1.40;99.90
15949;DHT22;14848;50.954;6.642;2023-03-01T22:05:59;1.50;99.90
15949;DHT22;14848;50.954;6.642;2023-03-01T22:08:26;1.40;99.90
15949;DHT22;14848;50.954;6.642;2023-03-01T22:10:52;1.30;99.90
15949;DHT22;14848;50.954;6.642;2023-03-01T22:13:18;1.40;99.90
15949;DHT22;14848;50.954;6.642;2023-03-01T22:15:44;1.30;99.90
15949;DHT22;14848;50.954;6.642;2023-03-01T22:18:11;1.40;99.90
15949;DHT22;14848;50.954;6.642;2023-03-01T22:20:39;1.30;99.90
15949;DHT22;14848;50.954;6.642;2023-03-01T22:27:57;1.10;99.90
15949;DHT22;14848;50.954;6.642;2023-03-01T22:30:23;1.30;99.90
15949;DHT22;14848;50.954;6.642;2023-03-01T22:32:49;1.80;99.90
15949;DHT22;14848;50.954;6.642;2023-03-01T22:35:15;1.20;99.90
15949;DHT22;14848;50.954;6.642;2023-03-01T22:37:41;1.60;99.90
15949;DHT22;14848;50.954;6.642;2023-03-01T22:40:07;1.50;99.90
15949;DHT22;14848;50.954;6.642;2023-03-01T22:42:33;1.40;99.90
15949;DHT22;14848;50.954;6.642;2023-03-01T22:44:59;1.30;99.90
15949;DHT22;14848;50.954;6.642;2023-03-01T22:47:25;1.60;99.90
15949;DHT22;14848;50.954;6.642;2023-03-01T22:49:54;1.50;99.90
15949;DHT22;14848;50.954;6.642;2023-03-01T22:52:20;1.60;99.90
15949;DHT22;14848;50.954;6.642;2023-03-01T22:57:12;1.60;99.90
15949;DHT22;14848;50.954;6.642;2023-03-01T22:59:37;1.60;99.90
15949;DHT22;14848;50.954;6.642;2023-03-01T23:04:29;1.70;99.90
15949;DHT22;14848;50.954;6.642;2023-03-01T23:06:55;1.50;99.90
15949;DHT22;14848;50.954;6.642;2023-03-01T23:09:29;1.20;99.90
15949;DHT22;14848;50.954;6.642;2023-03-01T23:11:57;1.40;99.90
15949;DHT22;14848;50.954;6.642;2023-03-01T23:14:24;1.20;99.90
15949;DHT22;14848;50.954;6.642;2023-03-01T23:19:17;1.80;99.90
15949;DHT22;14848;50.954;6.642;2023-03-01T23:21:44;1.20;99.90
15949;DHT22;14848;50.954;6.642;2023-03-01T23:24:16;1.30;99.90
15949;DHT22;14848;50.954;6.642;2023-03-01T23:26:42;1.20;99.90
15949;DHT22;14848;50.954;6.642;2023-03-01T23:29:08;1.00;99.90
15949;DHT22;14848;50.954;6.642;2023-03-01T23:31:34;0.90;99.90
15949;DHT22;14848;50.954;6.642;2023-03-01T23:34:00;0.90;99.90
15949;DHT22;14848;50.954;6.642;2023-03-01T23:36:29;1.00;99.90
15949;DHT22;14848;50.954;6.642;2023-03-01T23:39:05;0.90;99.90
15949;DHT22;14848;50.954;6.642;2023-03-01T23:41:33;1.10;99.90
15949;DHT22;14848;50.954;6.642;2023-03-01T23:44:00;0.70;99.90
15949;DHT22;14848;50.954;6.642;2023-03-01T23:46:29;0.70;99.90
15949;DHT22;14848;50.954;6.642;2023-03-01T23:51:22;0.80;99.90
15949;DHT22;14848;50.954;6.642;2023-03-01T23:53:53;0.80;99.90
15949;DHT22;14848;50.954;6.642;2023-03-01T23:56:24;0.70;99.90
15949;DHT22;14848;50.954;6.642;2023-03-01T23:58:51;0.70;99.90
